sensor_id;sensor_type;location;lat;lon;timestamp;pressure;altitude;pressure_sealevel;temperature;humidity
80640;BME280;69992;60.170;24.692;2023-06-19T00:01:02;101854.50;;;12.55;13.55
80640;BME280;69992;60.170;24.692;2023-06-19T00:03:28;101855.26;;;12.48;13.55
80640;BME280;69992;60.170;24.692;2023-06-19T00:05:54;101854.57;;;12.39;13.55
80640;BME280;69992;60.170;24.692;2023-06-19T00:08:20;101854.07;;;13.18;13.56
80640;BME280;69992;60.170;24.692;2023-06-19T00:10:45;101853.26;;;12.02;13.57
80640;BME280;69992;60.170;24.692;2023-06-19T00:13:10;101854.95;;;11.93;13.58
80640;BME280;69992;60.170;24.692;2023-06-19T00:15:36;101855.57;;;11.86;13.57
80640;BME280;69992;60.170;24.692;2023-06-19T00:18:01;101856.08;;;12.76;13.58
80640;BME280;69992;60.170;24.692;2023-06-19T00:20:27;101856.26;;;11.70;13.56
80640;BME280;69992;60.170;24.692;2023-06-19T00:22:53;101855.90;;;12.58;13.57
80640;BME280;69992;60.170;24.692;2023-06-19T00:25:18;101854.26;;;11.51;13.58
80640;BME280;69992;60.170;24.692;2023-06-19T00:27:44;101851.32;;;12.38;13.58
80640;BME280;69992;60.170;24.692;2023-06-19T00:30:10;101850.36;;;11.26;13.59
80640;BME280;69992;60.170;24.692;2023-06-19T00:32:35;101851.24;;;11.15;13.59
80640;BME280;69992;60.170;24.692;2023-06-19T00:35:00;101849.34;;;11.09;13.56
80640;BME280;69992;60.170;24.692;2023-06-19T00:37:26;101849.29;;;10.90;13.57
80640;BME280;69992;60.170;24.692;2023-06-19T00:39:51;101849.89;;;11.49;13.59
80640;BME280;69992;60.170;24.692;2023-06-19T00:42:17;101853.46;;;10.33;13.58
80640;BME280;69992;60.170;24.692;2023-06-19T00:44:42;101856.89;;;10.99;13.63
80640;BME280;69992;60.170;24.692;2023-06-19T00:47:08;101858.05;;;11.65;13.64
80640;BME280;69992;60.170;24.692;2023-06-19T00:49:33;101860.57;;;11.37;13.66
80640;BME280;69992;60.170;24.692;2023-06-19T00:51:59;101861.45;;;11.13;13.68
80640;BME280;69992;60.170;24.692;2023-06-19T00:54:25;101860.60;;;9.87;13.68
80640;BME280;69992;60.170;24.692;2023-06-19T00:56:50;101860.88;;;10.55;13.69
80640;BME280;69992;60.170;24.692;2023-06-19T00:59:18;101861.29;;;10.32;13.71
80640;BME280;69992;60.170;24.692;2023-06-19T01:01:42;101860.93;;;11.08;13.73
80640;BME280;69992;60.170;24.692;2023-06-19T01:04:07;101860.70;;;9.90;13.72
80640;BME280;69992;60.170;24.692;2023-06-19T01:06:39;101860.95;;;8.76;13.73
80640;BME280;69992;60.170;24.692;2023-06-19T01:09:04;101860.19;;;9.62;13.72
80640;BME280;69992;60.170;24.692;2023-06-19T01:11:28;101861.13;;;9.49;13.71
80640;BME280;69992;60.170;24.692;2023-06-19T01:13:53;101861.23;;;9.30;13.71
80640;BME280;69992;60.170;24.692;2023-06-19T01:16:16;101864.84;;;10.07;13.73
80640;BME280;69992;60.170;24.692;2023-06-19T01:18:41;101863.48;;;10.85;13.72
80640;BME280;69992;60.170;24.692;2023-06-19T01:21:11;101862.36;;;10.62;13.74
80640;BME280;69992;60.170;24.692;2023-06-19T01:23:32;101862.42;;;9.53;13.73
80640;BME280;69992;60.170;24.692;2023-06-19T01:25:57;101860.62;;;9.35;13.73
80640;BME280;69992;60.170;24.692;2023-06-19T01:28:23;101857.69;;;9.15;13.78
80640;BME280;69992;60.170;24.692;2023-06-19T01:30:49;101853.22;;;8.98;13.78
80640;BME280;69992;60.170;24.692;2023-06-19T01:33:19;101856.76;;;9.86;13.77
80640;BME280;69992;60.170;24.692;2023-06-19T01:35:42;101858.65;;;9.73;13.76
80640;BME280;69992;60.170;24.692;2023-06-19T01:38:06;101861.78;;;9.64;13.75
80640;BME280;69992;60.170;24.692;2023-06-19T01:40:31;101859.21;;;8.56;13.75
80640;BME280;69992;60.170;24.692;2023-06-19T01:42:57;101861.06;;;9.43;13.78
80640;BME280;69992;60.170;24.692;2023-06-19T01:45:22;101857.04;;;7.32;13.79
80640;BME280;69992;60.170;24.692;2023-06-19T01:47:48;101860.86;;;10.12;13.80
80640;BME280;69992;60.170;24.692;2023-06-19T01:50:14;101864.05;;;10.02;13.79
80640;BME280;69992;60.170;24.692;2023-06-19T01:52:39;101865.04;;;8.97;13.79
80640;BME280;69992;60.170;24.692;2023-06-19T01:55:06;101864.52;;;9.87;13.79
80640;BME280;69992;60.170;24.692;2023-06-19T01:57:31;101864.90;;;8.85;13.77
80640;BME280;69992;60.170;24.692;2023-06-19T01:59:56;101865.21;;;9.68;13.78
80640;BME280;69992;60.170;24.692;2023-06-19T02:02:22;101867.08;;;8.56;13.82
80640;BME280;69992;60.170;24.692;2023-06-19T02:04:47;101868.24;;;9.50;13.81
80640;BME280;69992;60.170;24.692;2023-06-19T02:07:13;101866.01;;;9.35;13.84
80640;BME280;69992;60.170;24.692;2023-06-19T02:09:38;101866.79;;;8.33;13.81
80640;BME280;69992;60.170;24.692;2023-06-19T02:12:05;101869.56;;;9.24;13.82
80640;BME280;69992;60.170;24.692;2023-06-19T02:14:30;101864.15;;;8.24;13.84
80640;BME280;69992;60.170;24.692;2023-06-19T02:16:55;101862.52;;;8.21;13.82
80640;BME280;69992;60.170;24.692;2023-06-19T02:19:21;101864.06;;;9.19;13.82
80640;BME280;69992;60.170;24.692;2023-06-19T02:21:47;101861.80;;;8.19;13.83
80640;BME280;69992;60.170;24.692;2023-06-19T02:24:12;101859.97;;;9.12;13.85
80640;BME280;69992;60.170;24.692;2023-06-19T02:26:38;101857.92;;;10.11;13.85
80640;BME280;69992;60.170;24.692;2023-06-19T02:29:03;101855.16;;;10.17;13.85
80640;BME280;69992;60.170;24.692;2023-06-19T02:31:29;101856.00;;;8.24;13.85
80640;BME280;69992;60.170;24.692;2023-06-19T02:33:55;101856.59;;;10.25;13.85
80640;BME280;69992;60.170;24.692;2023-06-19T02:36:21;101855.61;;;8.35;13.83
80640;BME280;69992;60.170;24.692;2023-06-19T02:38:46;101857.68;;;10.41;13.84
80640;BME280;69992;60.170;24.692;2023-06-19T02:41:11;101858.02;;;9.50;13.83
80640;BME280;69992;60.170;24.692;2023-06-19T02:43:37;101855.34;;;9.55;13.84
80640;BME280;69992;60.170;24.692;2023-06-19T02:46:03;101850.35;;;8.62;13.83
80640;BME280;69992;60.170;24.692;2023-06-19T02:48:28;101849.11;;;8.72;13.83
80640;BME280;69992;60.170;24.692;2023-06-19T02:50:54;101844.67;;;8.90;13.82
80640;BME280;69992;60.170;24.692;2023-06-19T02:53:21;101844.66;;;9.07;13.81
80640;BME280;69992;60.170;24.692;2023-06-19T02:55:45;101845.80;;;10.22;13.81
80640;BME280;69992;60.170;24.692;2023-06-19T02:58:11;101842.13;;;9.38;13.79
80640;BME280;69992;60.170;24.692;2023-06-19T03:00:36;101841.32;;;10.45;13.80
80640;BME280;69992;60.170;24.692;2023-06-19T03:03:02;101843.82;;;9.59;13.79
80640;BME280;69992;60.170;24.692;2023-06-19T03:05:28;101843.41;;;9.75;13.79
80640;BME280;69992;60.170;24.692;2023-06-19T03:07:53;101841.19;;;9.91;13.78
80640;BME280;69992;60.170;24.692;2023-06-19T03:10:19;101843.79;;;10.12;13.77
80640;BME280;69992;60.170;24.692;2023-06-19T03:12:44;101840.75;;;9.23;13.78
80640;BME280;69992;60.170;24.692;2023-06-19T03:15:10;101838.13;;;10.35;13.78
80640;BME280;69992;60.170;24.692;2023-06-19T03:17:36;101838.75;;;10.55;13.78
80640;BME280;69992;60.170;24.692;2023-06-19T03:20:01;101839.14;;;10.69;13.76
80640;BME280;69992;60.170;24.692;2023-06-19T03:22:27;101837.81;;;9.86;13.76
80640;BME280;69992;60.170;24.692;2023-06-19T03:24:52;101837.65;;;10.09;13.76
80640;BME280;69992;60.170;24.692;2023-06-19T03:27:18;101835.64;;;11.28;13.74
80640;BME280;69992;60.170;24.692;2023-06-19T03:29:43;101833.42;;;10.43;13.74
80640;BME280;69992;60.170;24.692;2023-06-19T03:32:09;101833.62;;;9.63;13.75
80640;BME280;69992;60.170;24.692;2023-06-19T03:34:35;101835.90;;;9.80;13.73
80640;BME280;69992;60.170;24.692;2023-06-19T03:37:00;101833.92;;;10.89;13.76
80640;BME280;69992;60.170;24.692;2023-06-19T03:39:26;101830.16;;;11.03;13.76
80640;BME280;69992;60.170;24.692;2023-06-19T03:41:51;101827.57;;;10.18;13.77
80640;BME280;69992;60.170;24.692;2023-06-19T03:44:17;101824.71;;;10.35;13.77
80640;BME280;69992;60.170;24.692;2023-06-19T03:46:43;101825.51;;;10.47;13.77
80640;BME280;69992;60.170;24.692;2023-06-19T03:49:08;101826.60;;;10.66;13.77
80640;BME280;69992;60.170;24.692;2023-06-19T03:51:34;101826.44;;;10.72;13.80
80640;BME280;69992;60.170;24.692;2023-06-19T03:53:59;101824.26;;;10.79;13.81
80640;BME280;69992;60.170;24.692;2023-06-19T03:56:25;101822.20;;;10.01;13.80
80640;BME280;69992;60.170;24.692;2023-06-19T03:58:50;101821.69;;;11.26;13.78
80640;BME280;69992;60.170;24.692;2023-06-19T04:01:16;101822.20;;;11.45;13.76
80640;BME280;69992;60.170;24.692;2023-06-19T04:03:42;101818.78;;;10.64;13.76
80640;BME280;69992;60.170;24.692;2023-06-19T04:06:07;101819.87;;;11.81;13.76
80640;BME280;69992;60.170;24.692;2023-06-19T04:08:33;101820.29;;;11.04;13.76
80640;BME280;69992;60.170;24.692;2023-06-19T04:10:58;101818.14;;;12.21;13.77
80640;BME280;69992;60.170;24.692;2023-06-19T04:13:24;101816.66;;;10.50;13.76
80640;BME280;69992;60.170;24.692;2023-06-19T04:15:49;101816.57;;;11.73;13.76
80640;BME280;69992;60.170;24.692;2023-06-19T04:18:15;101817.22;;;11.95;13.75
80640;BME280;69992;60.170;24.692;2023-06-19T04:20:41;101811.75;;;12.12;13.75
80640;BME280;69992;60.170;24.692;2023-06-19T04:23:06;101814.06;;;13.29;13.75
80640;BME280;69992;60.170;24.692;2023-06-19T04:25:32;101814.51;;;12.46;13.76
80640;BME280;69992;60.170;24.692;2023-06-19T04:27:57;101818.90;;;12.61;13.78
80640;BME280;69992;60.170;24.692;2023-06-19T04:30:23;101821.94;;;10.81;13.80
80640;BME280;69992;60.170;24.692;2023-06-19T04:32:48;101824.63;;;12.01;13.78
80640;BME280;69992;60.170;24.692;2023-06-19T04:35:14;101822.78;;;12.22;13.77
80640;BME280;69992;60.170;24.692;2023-06-19T04:37:40;101823.44;;;11.46;13.77
80640;BME280;69992;60.170;24.692;2023-06-19T04:40:06;101826.01;;;12.63;13.82
80640;BME280;69992;60.170;24.692;2023-06-19T04:42:31;101825.88;;;12.72;13.81
80640;BME280;69992;60.170;24.692;2023-06-19T04:44:56;101825.51;;;12.83;13.82
80640;BME280;69992;60.170;24.692;2023-06-19T04:47:23;101821.91;;;12.94;13.83
80640;BME280;69992;60.170;24.692;2023-06-19T04:49:47;101819.33;;;13.10;13.83
80640;BME280;69992;60.170;24.692;2023-06-19T04:52:13;101821.31;;;13.28;13.82
80640;BME280;69992;60.170;24.692;2023-06-19T04:54:39;101820.56;;;13.43;13.83
80640;BME280;69992;60.170;24.692;2023-06-19T04:57:05;101825.20;;;13.60;13.84
80640;BME280;69992;60.170;24.692;2023-06-19T04:59:30;101826.19;;;11.82;13.84
80640;BME280;69992;60.170;24.692;2023-06-19T05:01:55;101824.95;;;12.97;13.85
80640;BME280;69992;60.170;24.692;2023-06-19T05:04:21;101825.22;;;12.23;13.83
80640;BME280;69992;60.170;24.692;2023-06-19T05:06:46;101826.09;;;13.38;13.87
80640;BME280;69992;60.170;24.692;2023-06-19T05:09:12;101827.36;;;13.52;13.85
80640;BME280;69992;60.170;24.692;2023-06-19T05:11:38;101828.63;;;12.68;13.85
80640;BME280;69992;60.170;24.692;2023-06-19T05:14:03;101825.77;;;13.77;13.86
80640;BME280;69992;60.170;24.692;2023-06-19T05:16:29;101829.35;;;12.92;13.86
80640;BME280;69992;60.170;24.692;2023-06-19T05:18:54;101829.47;;;13.96;13.91
80640;BME280;69992;60.170;24.692;2023-06-19T05:21:21;101827.50;;;13.09;13.90
80640;BME280;69992;60.170;24.692;2023-06-19T05:23:46;101829.73;;;13.39;13.88
80640;BME280;69992;60.170;24.692;2023-06-19T05:26:11;101834.60;;;14.48;13.91
80640;BME280;69992;60.170;24.692;2023-06-19T05:28:37;101837.08;;;13.68;13.91
80640;BME280;69992;60.170;24.692;2023-06-19T05:31:02;101837.65;;;13.76;13.92
80640;BME280;69992;60.170;24.692;2023-06-19T05:33:28;101838.69;;;13.96;13.90
80640;BME280;69992;60.170;24.692;2023-06-19T05:35:53;101841.44;;;14.17;13.90
80640;BME280;69992;60.170;24.692;2023-06-19T05:38:19;101845.89;;;14.38;13.91
80640;BME280;69992;60.170;24.692;2023-06-19T05:40:44;101843.72;;;14.58;13.91
80640;BME280;69992;60.170;24.692;2023-06-19T05:43:10;101843.30;;;13.82;13.91
80640;BME280;69992;60.170;24.692;2023-06-19T05:45:36;101844.28;;;14.98;13.90
80640;BME280;69992;60.170;24.692;2023-06-19T05:48:01;101843.31;;;15.12;13.91
80640;BME280;69992;60.170;24.692;2023-06-19T05:50:27;101841.77;;;14.27;13.93
80640;BME280;69992;60.170;24.692;2023-06-19T05:52:52;101841.80;;;14.47;13.92
80640;BME280;69992;60.170;24.692;2023-06-19T05:55:18;101842.71;;;13.76;13.90
80640;BME280;69992;60.170;24.692;2023-06-19T05:57:43;101840.18;;;14.87;13.93
80640;BME280;69992;60.170;24.692;2023-06-19T06:00:10;101842.60;;;15.05;13.92
80640;BME280;69992;60.170;24.692;2023-06-19T06:02:35;101846.41;;;15.16;13.95
80640;BME280;69992;60.170;24.692;2023-06-19T06:05:00;101848.37;;;14.29;13.93
80640;BME280;69992;60.170;24.692;2023-06-19T06:07:26;101848.18;;;14.41;13.96
80640;BME280;69992;60.170;24.692;2023-06-19T06:09:51;101846.00;;;14.41;14.01
80640;BME280;69992;60.170;24.692;2023-06-19T06:12:17;101844.63;;;14.46;14.02
80640;BME280;69992;60.170;24.692;2023-06-19T06:14:42;101840.08;;;14.46;14.05
80640;BME280;69992;60.170;24.692;2023-06-19T06:17:08;101839.14;;;14.64;14.03
80640;BME280;69992;60.170;24.692;2023-06-19T06:19:33;101839.05;;;14.81;14.10
80640;BME280;69992;60.170;24.692;2023-06-19T06:21:59;101839.01;;;14.88;14.08
80640;BME280;69992;60.170;24.692;2023-06-19T06:24:25;101840.07;;;15.05;14.08
80640;BME280;69992;60.170;24.692;2023-06-19T06:26:50;101839.81;;;14.32;14.13
80640;BME280;69992;60.170;24.692;2023-06-19T06:29:16;101840.97;;;15.40;14.09
80640;BME280;69992;60.170;24.692;2023-06-19T06:31:45;101843.96;;;15.45;14.10
80640;BME280;69992;60.170;24.692;2023-06-19T06:34:07;101841.29;;;14.58;14.08
80640;BME280;69992;60.170;24.692;2023-06-19T06:36:32;101841.89;;;13.86;14.07
80640;BME280;69992;60.170;24.692;2023-06-19T06:38:58;101841.90;;;16.00;14.07
80640;BME280;69992;60.170;24.692;2023-06-19T06:41:23;101838.20;;;14.24;14.06
80640;BME280;69992;60.170;24.692;2023-06-19T06:43:49;101840.20;;;14.54;14.03
80640;BME280;69992;60.170;24.692;2023-06-19T06:46:14;101840.40;;;15.65;14.06
80640;BME280;69992;60.170;24.692;2023-06-19T06:48:40;101844.44;;;14.93;14.05
80640;BME280;69992;60.170;24.692;2023-06-19T06:51:06;101843.67;;;15.12;14.04
80640;BME280;69992;60.170;24.692;2023-06-19T06:53:31;101844.14;;;15.38;14.04
80640;BME280;69992;60.170;24.692;2023-06-19T06:55:57;101844.04;;;15.50;14.04
80640;BME280;69992;60.170;24.692;2023-06-19T06:58:22;101846.18;;;14.64;14.05
80640;BME280;69992;60.170;24.692;2023-06-19T07:00:48;101848.96;;;15.80;14.05
80640;BME280;69992;60.170;24.692;2023-06-19T07:03:13;101846.62;;;15.98;14.07
80640;BME280;69992;60.170;24.692;2023-06-19T07:05:39;101851.19;;;15.18;14.06
80640;BME280;69992;60.170;24.692;2023-06-19T07:08:04;101843.42;;;15.28;14.08
80640;BME280;69992;60.170;24.692;2023-06-19T07:10:30;101844.52;;;16.44;14.08
80640;BME280;69992;60.170;24.692;2023-06-19T07:12:56;101840.75;;;16.71;14.09
80640;BME280;69992;60.170;24.692;2023-06-19T07:15:21;101842.23;;;15.98;14.08
80640;BME280;69992;60.170;24.692;2023-06-19T07:17:47;101845.78;;;15.19;14.07
80640;BME280;69992;60.170;24.692;2023-06-19T07:20:12;101844.14;;;15.28;14.08
80640;BME280;69992;60.170;24.692;2023-06-19T07:22:37;101842.98;;;15.46;14.10
80640;BME280;69992;60.170;24.692;2023-06-19T07:25:04;101842.38;;;16.61;14.17
80640;BME280;69992;60.170;24.692;2023-06-19T07:27:28;101839.26;;;16.59;14.15
80640;BME280;69992;60.170;24.692;2023-06-19T07:29:54;101839.66;;;15.75;14.14
80640;BME280;69992;60.170;24.692;2023-06-19T07:32:20;101839.56;;;16.94;14.15
80640;BME280;69992;60.170;24.692;2023-06-19T07:34:45;101841.37;;;16.20;14.14
80640;BME280;69992;60.170;24.692;2023-06-19T07:37:10;101842.13;;;17.43;14.16
80640;BME280;69992;60.170;24.692;2023-06-19T07:39:36;101844.67;;;16.71;14.16
80640;BME280;69992;60.170;24.692;2023-06-19T07:42:01;101845.59;;;16.97;14.14
80640;BME280;69992;60.170;24.692;2023-06-19T07:44:27;101846.85;;;17.12;14.17
80640;BME280;69992;60.170;24.692;2023-06-19T07:46:52;101848.03;;;17.44;14.15
80640;BME280;69992;60.170;24.692;2023-06-19T07:49:17;101852.50;;;17.71;14.15
80640;BME280;69992;60.170;24.692;2023-06-19T07:51:43;101854.78;;;16.95;14.19
80640;BME280;69992;60.170;24.692;2023-06-19T07:54:08;101852.25;;;18.02;14.28
80640;BME280;69992;60.170;24.692;2023-06-19T07:56:34;101853.18;;;18.00;14.25
80640;BME280;69992;60.170;24.692;2023-06-19T07:58:59;101849.79;;;17.18;14.24
80640;BME280;69992;60.170;24.692;2023-06-19T08:01:25;101846.67;;;16.33;14.25
80640;BME280;69992;60.170;24.692;2023-06-19T08:03:50;101846.65;;;18.40;14.27
80640;BME280;69992;60.170;24.692;2023-06-19T08:06:16;101844.98;;;17.49;14.33
80640;BME280;69992;60.170;24.692;2023-06-19T08:08:41;101839.09;;;18.69;14.30
80640;BME280;69992;60.170;24.692;2023-06-19T08:11:07;101838.63;;;17.93;14.32
80640;BME280;69992;60.170;24.692;2023-06-19T08:13:32;101841.41;;;18.15;14.30
80640;BME280;69992;60.170;24.692;2023-06-19T08:15:58;101836.62;;;18.27;14.33
80640;BME280;69992;60.170;24.692;2023-06-19T08:18:23;101837.26;;;17.50;14.38
80640;BME280;69992;60.170;24.692;2023-06-19T08:20:49;101834.60;;;17.67;14.34
80640;BME280;69992;60.170;24.692;2023-06-19T08:23:14;101831.43;;;18.87;14.34
80640;BME280;69992;60.170;24.692;2023-06-19T08:25:40;101830.27;;;18.13;14.33
80640;BME280;69992;60.170;24.692;2023-06-19T08:28:05;101828.93;;;18.40;14.34
80640;BME280;69992;60.170;24.692;2023-06-19T08:30:31;101830.86;;;18.65;14.36
80640;BME280;69992;60.170;24.692;2023-06-19T08:32:56;101832.33;;;17.95;14.36
80640;BME280;69992;60.170;24.692;2023-06-19T08:35:22;101830.28;;;18.21;14.33
80640;BME280;69992;60.170;24.692;2023-06-19T08:37:47;101830.73;;;18.44;14.32
80640;BME280;69992;60.170;24.692;2023-06-19T08:40:13;101830.55;;;18.63;14.36
80640;BME280;69992;60.170;24.692;2023-06-19T08:42:38;101830.73;;;18.84;14.35
80640;BME280;69992;60.170;24.692;2023-06-19T08:45:05;101833.45;;;19.12;14.40
80640;BME280;69992;60.170;24.692;2023-06-19T08:47:29;101834.69;;;19.22;14.39
80640;BME280;69992;60.170;24.692;2023-06-19T08:49:54;101836.58;;;19.47;14.40
80640;BME280;69992;60.170;24.692;2023-06-19T08:52:20;101836.91;;;18.66;14.41
80640;BME280;69992;60.170;24.692;2023-06-19T08:54:45;101837.08;;;19.94;14.43
80640;BME280;69992;60.170;24.692;2023-06-19T08:57:11;101840.69;;;19.37;14.42
80640;BME280;69992;60.170;24.692;2023-06-19T08:59:36;101840.08;;;19.77;14.41
80640;BME280;69992;60.170;24.692;2023-06-19T09:02:02;101839.37;;;20.21;14.40
80640;BME280;69992;60.170;24.692;2023-06-19T09:04:27;101833.74;;;19.64;14.37
80640;BME280;69992;60.170;24.692;2023-06-19T09:06:54;101838.17;;;19.93;14.39
80640;BME280;69992;60.170;24.692;2023-06-19T09:09:20;101838.09;;;20.16;14.43
80640;BME280;69992;60.170;24.692;2023-06-19T09:11:43;101837.46;;;21.29;14.40
80640;BME280;69992;60.170;24.692;2023-06-19T09:14:09;101839.46;;;20.55;14.45
80640;BME280;69992;60.170;24.692;2023-06-19T09:16:39;101840.88;;;19.91;14.44
80640;BME280;69992;60.170;24.692;2023-06-19T09:19:00;101836.59;;;20.33;14.44
80640;BME280;69992;60.170;24.692;2023-06-19T09:21:25;101834.20;;;20.62;14.44
80640;BME280;69992;60.170;24.692;2023-06-19T09:23:51;101833.79;;;20.79;14.50
80640;BME280;69992;60.170;24.692;2023-06-19T09:26:16;101833.88;;;21.21;14.45
80640;BME280;69992;60.170;24.692;2023-06-19T09:28:42;101833.01;;;20.58;14.53
80640;BME280;69992;60.170;24.692;2023-06-19T09:31:07;101835.74;;;21.90;14.47
80640;BME280;69992;60.170;24.692;2023-06-19T09:33:34;101835.80;;;21.39;14.47
80640;BME280;69992;60.170;24.692;2023-06-19T09:35:59;101838.16;;;20.81;14.45
80640;BME280;69992;60.170;24.692;2023-06-19T09:38:26;101837.97;;;21.17;14.43
80640;BME280;69992;60.170;24.692;2023-06-19T09:40:48;101837.20;;;20.72;14.39
80640;BME280;69992;60.170;24.692;2023-06-19T09:43:18;101841.89;;;22.79;14.25
80640;BME280;69992;60.170;24.692;2023-06-19T09:45:39;101839.12;;;22.89;13.95
80640;BME280;69992;60.170;24.692;2023-06-19T09:48:08;101839.66;;;25.06;13.72
80640;BME280;69992;60.170;24.692;2023-06-19T09:50:30;101845.06;;;26.04;13.55
80640;BME280;69992;60.170;24.692;2023-06-19T09:52:56;101841.84;;;25.65;13.39
80640;BME280;69992;60.170;24.692;2023-06-19T09:55:22;101840.23;;;27.42;13.19
80640;BME280;69992;60.170;24.692;2023-06-19T09:57:46;101840.65;;;28.48;13.01
80640;BME280;69992;60.170;24.692;2023-06-19T10:00:12;101844.88;;;28.83;12.93
80640;BME280;69992;60.170;24.692;2023-06-19T10:02:37;101844.39;;;28.69;12.92
80640;BME280;69992;60.170;24.692;2023-06-19T10:05:02;101844.33;;;29.57;12.91
80640;BME280;69992;60.170;24.692;2023-06-19T10:07:33;101845.56;;;29.53;12.87
80640;BME280;69992;60.170;24.692;2023-06-19T10:09:58;101842.50;;;29.58;12.84
80640;BME280;69992;60.170;24.692;2023-06-19T10:12:18;101846.32;;;30.32;12.83
80640;BME280;69992;60.170;24.692;2023-06-19T10:14:47;101851.74;;;31.09;12.81
80640;BME280;69992;60.170;24.692;2023-06-19T10:17:09;101847.13;;;30.61;12.83
80640;BME280;69992;60.170;24.692;2023-06-19T10:19:34;101852.14;;;30.09;12.85
80640;BME280;69992;60.170;24.692;2023-06-19T10:22:00;101853.23;;;30.49;12.89
80640;BME280;69992;60.170;24.692;2023-06-19T10:24:26;101848.15;;;31.04;12.88
80640;BME280;69992;60.170;24.692;2023-06-19T10:26:56;101849.94;;;31.98;12.84
80640;BME280;69992;60.170;24.692;2023-06-19T10:29:16;101850.88;;;32.02;12.77
80640;BME280;69992;60.170;24.692;2023-06-19T10:31:41;101845.54;;;32.01;12.70
80640;BME280;69992;60.170;24.692;2023-06-19T10:34:06;101843.58;;;32.91;12.65
80640;BME280;69992;60.170;24.692;2023-06-19T10:36:32;101841.30;;;32.18;12.64
80640;BME280;69992;60.170;24.692;2023-06-19T10:38:57;101840.47;;;32.23;12.68
80640;BME280;69992;60.170;24.692;2023-06-19T10:41:24;101839.17;;;32.58;12.69
80640;BME280;69992;60.170;24.692;2023-06-19T10:43:53;101840.22;;;32.03;12.69
80640;BME280;69992;60.170;24.692;2023-06-19T10:46:13;101839.00;;;32.29;12.67
80640;BME280;69992;60.170;24.692;2023-06-19T10:48:38;101836.65;;;32.14;12.72
80640;BME280;69992;60.170;24.692;2023-06-19T10:51:03;101834.62;;;32.17;12.78
80640;BME280;69992;60.170;24.692;2023-06-19T10:53:31;101836.07;;;32.41;12.78
80640;BME280;69992;60.170;24.692;2023-06-19T10:55:56;101826.86;;;33.22;12.95
80640;BME280;69992;60.170;24.692;2023-06-19T10:58:20;101825.55;;;31.36;13.19
80640;BME280;69992;60.170;24.692;2023-06-19T11:00:45;101824.10;;;28.94;13.43
80640;BME280;69992;60.170;24.692;2023-06-19T11:03:10;101820.51;;;28.67;13.70
80640;BME280;69992;60.170;24.692;2023-06-19T11:05:36;101816.21;;;27.30;13.93
80640;BME280;69992;60.170;24.692;2023-06-19T11:08:01;101814.03;;;26.44;14.12
80640;BME280;69992;60.170;24.692;2023-06-19T11:10:28;101808.58;;;25.62;14.31
80640;BME280;69992;60.170;24.692;2023-06-19T11:12:54;101808.49;;;25.00;14.44
80640;BME280;69992;60.170;24.692;2023-06-19T11:15:17;101804.31;;;25.46;14.52
80640;BME280;69992;60.170;24.692;2023-06-19T11:17:42;101809.10;;;24.20;14.61
80640;BME280;69992;60.170;24.692;2023-06-19T11:20:10;101810.95;;;24.13;14.72
80640;BME280;69992;60.170;24.692;2023-06-19T11:22:37;101805.02;;;22.25;14.77
80640;BME280;69992;60.170;24.692;2023-06-19T11:25:02;101803.21;;;23.85;14.76
80640;BME280;69992;60.170;24.692;2023-06-19T11:27:24;101804.06;;;23.42;14.78
80640;BME280;69992;60.170;24.692;2023-06-19T11:29:54;101798.52;;;23.87;14.74
80640;BME280;69992;60.170;24.692;2023-06-19T11:32:16;101796.71;;;23.42;14.77
80640;BME280;69992;60.170;24.692;2023-06-19T11:34:41;101798.35;;;24.00;14.77
80640;BME280;69992;60.170;24.692;2023-06-19T11:37:12;101795.02;;;22.66;14.78
80640;BME280;69992;60.170;24.692;2023-06-19T11:39:31;101794.03;;;22.68;14.66
80640;BME280;69992;60.170;24.692;2023-06-19T11:41:58;101795.87;;;24.07;14.52
80640;BME280;69992;60.170;24.692;2023-06-19T11:44:22;101800.20;;;24.97;14.30
80640;BME280;69992;60.170;24.692;2023-06-19T11:46:47;101802.20;;;26.85;13.97
80640;BME280;69992;60.170;24.692;2023-06-19T11:49:13;101799.10;;;28.23;13.68
80640;BME280;69992;60.170;24.692;2023-06-19T11:51:38;101801.11;;;28.15;13.38
80640;BME280;69992;60.170;24.692;2023-06-19T11:54:06;101804.52;;;28.56;13.35
80640;BME280;69992;60.170;24.692;2023-06-19T11:56:28;101799.46;;;28.80;13.45
80640;BME280;69992;60.170;24.692;2023-06-19T11:58:54;101797.69;;;27.54;13.61
80640;BME280;69992;60.170;24.692;2023-06-19T12:01:19;101794.34;;;26.43;13.76
80640;BME280;69992;60.170;24.692;2023-06-19T12:03:44;101793.86;;;25.68;13.88
80640;BME280;69992;60.170;24.692;2023-06-19T12:06:10;101790.15;;;26.27;13.96
80640;BME280;69992;60.170;24.692;2023-06-19T12:08:35;101792.16;;;27.05;14.01
80640;BME280;69992;60.170;24.692;2023-06-19T12:11:01;101787.26;;;26.42;13.95
80640;BME280;69992;60.170;24.692;2023-06-19T12:13:26;101785.60;;;27.24;13.89
80640;BME280;69992;60.170;24.692;2023-06-19T12:15:51;101785.71;;;27.68;13.76
80640;BME280;69992;60.170;24.692;2023-06-19T12:18:17;101781.98;;;29.43;13.45
80640;BME280;69992;60.170;24.692;2023-06-19T12:20:42;101788.54;;;30.17;13.12
80640;BME280;69992;60.170;24.692;2023-06-19T12:23:07;101789.42;;;31.91;12.80
80640;BME280;69992;60.170;24.692;2023-06-19T12:25:33;101788.44;;;32.04;12.58
80640;BME280;69992;60.170;24.692;2023-06-19T12:27:58;101786.39;;;33.76;12.38
80640;BME280;69992;60.170;24.692;2023-06-19T12:30:23;101784.33;;;33.15;12.26